Latest Coastal Weather Observations for Ulladulla

IDN60701

Issued at 8:22 pm EST Wednesday 24 August 2016 (issued every 10 minutes, with the page automatically refreshed every 10 minutes)

About coastal observations | Map of coastal stations | Coastal observations for NSW | Marine services | Other Formats
Station Details ID: 069138 Name: ULLADULLA AWS Lat: -35.36 Lon: 150.48 Height: 35.7 m
Data from the previous 72 hours. | See also: Recent months at Ulladulla
Date/Time
EST
Temp
°C
Wind Pressure Rain since
9am
mm
Weather Cloud Vis
km
Sea
Height
m
Swell
Dir  Spd
kts
Gust
kts
hPa Trend Height
m
Period
s
Dir
24/08:00pm 8.2 SW 8 13 1010.3 - 30.0 - - - - - - -
24/07:30pm 8.4 WSW 7 13 1010.5 - 27.8 - - - - - - -
24/07:00pm 8.5 WSW 7 11 1010.6 - 27.0 - - - - - - -
24/06:30pm 8.6 WSW 9 13 1010.4 - 25.4 - - - - - - -
24/06:00pm 8.9 WSW 7 11 1010.5 - 24.0 Rain - - - - - -
24/05:30pm 9.4 SW 6 8 1010.2 - 22.2 - - - - - - -
24/05:00pm 9.6 SW 7 10 1010.0 - 19.8 - - - - - - -
24/04:30pm 9.6 SW 9 16 1010.0 - 17.6 - - - - - - -
24/04:00pm 9.5 SW 7 10 1010.1 - 15.0 - - - - - - -
24/03:30pm 9.5 SW 7 10 1010.2 - 12.6 - - - - - - -
24/03:00pm 9.6 SW 7 10 1010.3 - 10.2 Rain - - - - - -
24/02:30pm 9.5 SW 8 13 1010.6 - 7.0 - - - - - - -
24/02:00pm 9.6 WSW 7 12 1010.7 - 5.2 - - - - - - -
24/01:30pm 10.1 SW 6 9 1011.1 - 1.8 - - - - - - -
24/01:00pm 10.6 SW 8 12 1010.8 - 0.4 - - - - - - -
24/12:30pm 11.2 SW 7 11 1011.5 - 0.2 - - - - - - -
24/12:00pm 10.9 SW 6 9 1012.1 - 0.2 - - - - - - -
24/11:30am 10.9 SW 5 8 1013.3 - 0.2 - - - - - - -
24/11:00am 11.4 SSW 8 11 1013.8 - 0.2 - - - - - - -
24/10:30am 11.9 SSW 9 15 1013.9 - 0.0 - - - - - - -
24/10:00am 12.2 SSW 9 14 1014.2 - 0.0 - - - - - - -
24/09:30am 11.4 SW 8 13 1014.5 - 0.0 - - - - - - -
24/09:00am 11.4 SW 6 9 1015.3 - 3.8 - - - - - - -
24/08:30am 10.6 WSW 6 10 1015.1 - 3.8 - - - - - - -
24/08:00am 10.4 WSW 7 10 1014.9 - 3.8 - - - - - - -
24/07:30am 9.6 SW 7 9 1014.9 - 3.8 - - - - - - -
24/07:00am 9.5 SW 6 10 1015.0 - 3.8 - - - - - - -
24/06:30am 9.3 SW 7 10 1014.6 - 3.8 - - - - - - -
24/06:00am 9.4 SW 6 11 1014.7 - 3.8 - - - - - - -
24/05:30am 9.6 SW 7 11 1014.9 - 3.8 - - - - - - -
24/05:00am 9.5 WSW 5 8 1015.1 - 3.8 - - - - - - -
24/04:30am 9.6 SW 5 7 1014.8 - 3.8 - - - - - - -
24/04:00am 9.7 SW 3 4 1015.2 - 3.8 - - - - - - -
24/03:30am 9.6 SW 2 3 1015.3 - 3.8 - - - - - - -
24/03:00am 9.8 WSW 4 7 1015.3 - 3.8 Recent precip. - - - - - -
24/02:30am 9.6 W 4 5 1015.3 - 3.8 - - - - - - -
24/02:00am 9.8 W 3 5 1015.9 - 3.6 - - - - - - -
24/01:30am 10.1 WSW 4 6 1016.5 - 3.2 - - - - - - -
24/01:00am 10.3 WSW 4 6 1016.4 - 1.8 - - - - - - -
24/12:30am 10.6 WSW 4 5 1016.6 - 0.2 - - - - - - -
24/12:00am 10.7 WSW 3 5 1016.5 - 0.2 - - - - - - -
 
Date/Time
EST
Temp
°C
Wind Pressure Rain since
9am
mm
Weather Cloud Vis
km
Sea
Height
m
Swell
Dir  Spd
kts
Gust
kts
hPa Trend Height
m
Period
s
Dir
23/11:30pm 10.6 SW 3 5 1016.8 - 0.2 - - - - - - -
23/11:00pm 10.6 SW 4 6 1016.8 - 0.2 - - - - - - -
23/10:30pm 10.8 SW 2 4 1016.9 - 0.0 - - - - - - -
23/10:00pm 11.0 SW 3 5 1016.6 - 0.0 - - - - - - -
23/09:30pm 11.7 S 4 6 1016.9 - 0.0 - - - - - - -
23/09:00pm 11.6 SSW 1 3 1017.0 - 0.0 - - - - - - -
23/08:30pm 11.4 SW 5 7 1016.2 - 0.0 - - - - - - -
23/08:00pm 11.4 WSW 5 8 1017.0 - 0.0 - - - - - - -
23/07:30pm 11.8 WSW 5 8 1016.4 - 0.0 - - - - - - -
23/07:00pm 12.0 WSW 5 8 1016.1 - 0.0 - - - - - - -
23/06:30pm 12.4 SW 6 9 1016.2 - 0.0 - - - - - - -
23/06:00pm 12.4 SW 5 8 1015.8 - 0.0 - - - - - - -
23/05:30pm 14.0 SSW 9 16 1015.8 - 0.0 - - - - - - -
23/05:00pm 14.1 S 12 17 1015.1 - 0.0 - - - - - - -
23/04:30pm 14.1 S 12 16 1015.3 - 0.0 - - - - - - -
23/04:00pm 13.9 S 12 18 1014.8 - 0.0 - - - - - - -
23/03:30pm 14.0 S 14 20 1014.4 - 0.0 - - - - - - -
23/03:00pm 14.0 S 17 24 1013.6 - 0.0 - - - - - - -
23/02:30pm 14.5 S 13 19 1014.2 - 0.0 - - - - - - -
23/02:00pm 14.5 SSW 12 18 1014.2 - 0.0 - - - - - - -
23/01:30pm 14.4 SSW 12 19 1014.5 - 0.0 - - - - - - -
23/01:00pm 14.2 SSW 11 15 1014.4 - 0.0 - - - - - - -
23/12:30pm 13.9 SSW 11 18 1014.7 - 0.0 - - - - - - -
23/12:00pm 13.3 SSW 9 14 1015.1 - 0.0 - - - - - - -
23/11:30am 12.8 SSW 9 14 1015.3 - 0.0 - - - - - - -
23/11:00am 12.6 SW 8 13 1015.4 - 0.0 - - - - - - -
23/10:30am 12.9 SW 10 16 1015.5 - 0.0 - - - - - - -
23/10:00am 12.5 SSW 13 19 1014.8 - 0.0 - - - - - - -
23/09:30am 12.4 SSW 14 21 1013.7 - 0.0 - - - - - - -
23/09:00am 11.6 SSW 12 17 1013.6 - 7.8 - - - - - - -
23/08:30am 10.8 SW 10 16 1013.9 - 7.8 - - - - - - -
23/08:00am 10.3 SW 10 17 1013.7 - 7.8 - - - - - - -
23/07:30am 9.8 SW 6 9 1013.4 - 7.8 - - - - - - -
23/07:00am 9.5 SW 8 12 1013.0 - 7.8 - - - - - - -
23/06:30am 9.4 SW 8 12 1012.8 - 7.8 - - - - - - -
23/06:00am 9.4 SW 8 16 1012.7 - 7.2 Rain - - - - - -
23/05:30am 9.5 SW 9 15 1012.5 - 6.6 - - - - - - -
23/05:00am 9.6 WSW 6 12 1012.4 - 5.8 - - - - - - -
23/04:30am 9.6 WSW 6 9 1012.1 - 5.4 - - - - - - -
23/04:00am 9.7 WSW 7 11 1011.8 - 5.0 - - - - - - -
23/03:30am 9.8 W 6 10 1011.6 - 4.4 - - - - - - -
23/03:00am 10.1 WSW 5 7 1011.6 - 3.2 Rain - - - - - -
23/02:30am 10.2 SW 7 12 1011.4 - 2.8 - - - - - - -
23/02:00am 10.5 SW 7 11 1011.6 - 2.4 - - - - - - -
23/01:30am 10.4 SW 6 9 1011.6 - 1.4 - - - - - - -
23/01:00am 10.5 WSW 4 6 1011.8 - 1.2 - - - - - - -
23/12:30am 10.5 WSW 3 4 1011.9 - 1.0 - - - - - - -
23/12:00am 10.9 SW 4 6 1012.0 - 0.8 Rain - - - - - -
 
Date/Time
EST
Temp
°C
Wind Pressure Rain since
9am
mm
Weather Cloud Vis
km
Sea
Height
m
Swell
Dir  Spd
kts
Gust
kts
hPa Trend Height
m
Period
s
Dir
22/11:30pm 11.7 W 4 7 1011.9 - 0.2 - - - - - - -
22/11:00pm 12.0 WSW 4 6 1012.0 - 0.0 - - - - - - -
22/10:30pm 12.0 WSW 4 6 1012.1 - 0.0 - - - - - - -
22/10:00pm 12.2 W 4 7 1012.4 - 0.0 - - - - - - -
22/09:30pm 12.0 W 4 7 1012.7 - 0.0 - - - - - - -
22/09:00pm 12.0 NNW 1 2 1012.6 - 0.0 - - - - - - -
22/08:30pm 12.0 NNW 2 3 1012.5 - 0.0 - - - - - - -
22/08:00pm 12.1 N 2 6 1012.5 - 0.0 - - - - - - -
22/07:30pm 12.1 N 1 2 1012.4 - 0.0 - - - - - - -
22/07:00pm 12.8 N 1 2 1012.8 - 0.0 - - - - - - -
22/06:30pm 13.5 N 2 3 1013.1 - 0.0 - - - - - - -
22/06:00pm 14.6 N 1 3 1012.8 - 0.0 - - - - - - -
22/05:30pm 14.5 NNE 4 7 1012.4 - 0.0 - - - - - - -
22/05:00pm 14.6 ENE 4 5 1011.9 - 0.0 - - - - - - -
22/04:30pm 14.9 NE 2 4 1012.4 - 0.0 - - - - - - -
22/04:00pm 15.3 ENE 2 4 1012.5 - 0.0 - - - - - - -
22/03:30pm 15.6 SE 3 4 1012.8 - 0.0 - - - - - - -
22/03:00pm 15.1 SSE 2 4 1013.1 - 0.0 - - - - - - -
22/02:30pm 15.1 NE 1 2 1013.4 - 0.0 - - - - - - -
22/02:00pm 15.1 NE 1 2 1013.5 - 0.0 - - - - - - -
22/01:30pm 15.1 N 1 2 1013.9 - 0.0 - - - - - - -
22/01:00pm 15.0 N 1 2 1014.5 - 0.0 - - - - - - -
22/12:30pm 14.3 N 2 3 1014.8 - 0.0 - - - - - - -
22/12:00pm 14.0 N 3 5 1015.3 - 0.0 - - - - - - -
22/11:30am 14.0 N 1 2 1015.4 - 0.0 - - - - - - -
22/11:00am 13.9 N 1 3 1016.0 - 0.0 - - - - - - -
22/10:30am 13.9 CALM 0 2 1016.1 - 0.0 - - - - - - -
22/10:00am 13.5 N 3 4 1016.4 - 0.0 - - - - - - -
22/09:30am 13.5 N 2 4 1016.4 - 0.0 - - - - - - -
22/09:00am 12.9 WSW 3 4 1016.1 - 0.0 - - - - - - -
22/08:30am 12.0 N 3 4 1016.5 - 0.0 - - - - - - -
22/08:00am 11.5 NNW 4 5 1016.5 - 0.0 - - - - - - -
22/07:30am 11.2 NNW 4 5 1016.5 - 0.0 - - - - - - -
22/07:00am 10.9 NNW 5 7 1016.4 - 0.0 - - - - - - -
22/06:30am 11.0 NNW 4 6 1016.3 - 0.0 - - - - - - -
22/06:00am 10.8 NNW 5 6 1016.1 - 0.0 - - - - - - -
22/05:30am 10.6 NNW 4 5 1015.9 - 0.0 - - - - - - -
22/05:00am 10.7 NNW 3 6 1015.7 - 0.0 - - - - - - -
22/04:30am 9.7 N 2 4 1015.8 - 0.0 - - - - - - -
22/04:00am 10.9 N 1 3 1015.8 - 0.0 - - - - - - -
22/03:30am 10.8 N 3 5 1015.9 - 0.0 - - - - - - -
22/03:00am 10.6 N 3 5 1016.1 - 0.0 - - - - - - -
22/02:30am 10.8 NW 2 5 1016.3 - 0.0 - - - - - - -
22/02:00am 10.3 CALM 0 0 1016.1 - 0.0 - - - - - - -
22/01:30am 10.8 N 2 3 1016.2 - 0.0 - - - - - - -
22/01:00am 9.8 N 3 4 1016.4 - 0.0 - - - - - - -
22/12:30am 9.9 CALM 0 0 1016.4 - 0.0 - - - - - - -
22/12:00am 10.1 WSW 1 2 1016.4 - 0.0 - - - - - - -
 
Date/Time
EST
Temp
°C
Wind Pressure Rain since
9am
mm
Weather Cloud Vis
km
Sea
Height
m
Swell
Dir  Spd
kts
Gust
kts
hPa Trend Height
m
Period
s
Dir
21/11:30pm 10.1 NNW 2 5 1016.5 - 0.0 - - - - - - -
21/11:00pm 10.7 N 2 3 1016.6 - 0.0 - - - - - - -
21/10:30pm 11.3 NNW 3 4 1016.8 - 0.0 - - - - - - -
21/10:00pm 10.5 N 2 3 1016.9 - 0.0 - - - - - - -
21/09:30pm 10.9 NNW 2 3 1016.7 - 0.0 - - - - - - -
21/09:00pm 10.5 CALM 0 0 1016.8 - 0.0 - - - - - - -
21/08:30pm 11.7 CALM 0 3 1017.2 - 0.0 - - - - - - -

Other Formats:

Comma delimited format used in spreadsheet applications
http://www.bom.gov.au/fwo/IDN60701/IDN60701.94938.axf

JavaScript Object Notation format (JSON) in row-major order
http://www.bom.gov.au/fwo/IDN60701/IDN60701.94938.json